createdAt,value
2023-01-26T00:01:08.700Z,28.06
2023-01-26T00:03:36.468Z,28.22
2023-01-26T00:06:04.599Z,28.05
2023-01-26T00:08:32.509Z,28.02
2023-01-26T00:11:03.861Z,28.05
2023-01-26T00:13:31.627Z,28.11
2023-01-26T00:15:59.684Z,27.95
2023-01-26T00:18:27.452Z,28.17
2023-01-26T00:20:58.776Z,28.05
2023-01-26T00:23:26.510Z,28.09
2023-01-26T00:25:54.388Z,28.10
2023-01-26T00:28:23.477Z,28.14
2023-01-26T00:30:51.226Z,28.02
2023-01-26T00:33:19.023Z,28.05
2023-01-26T00:35:47.153Z,28.21
2023-01-26T00:38:15.143Z,28.17
2023-01-26T00:40:42.861Z,28.26
2023-01-26T00:43:10.499Z,28.13
2023-01-26T00:45:39.594Z,28.25
2023-01-26T00:48:07.584Z,28.19
2023-01-26T00:50:35.217Z,28.16
2023-01-26T00:53:02.864Z,28.13
2023-01-26T00:55:32.498Z,28.20
2023-01-26T00:58:00.360Z,28.26
2023-01-26T01:00:28.054Z,28.17
2023-01-26T01:02:57.335Z,28.25
2023-01-26T01:05:25.003Z,28.13
2023-01-26T01:07:52.780Z,28.24
2023-01-26T01:10:20.669Z,28.29
2023-01-26T01:12:48.475Z,28.14
2023-01-26T01:15:16.219Z,28.15
2023-01-26T01:17:43.882Z,28.18
2023-01-26T01:20:13.636Z,28.14
2023-01-26T01:22:41.456Z,28.16
2023-01-26T01:25:09.547Z,28.13
2023-01-26T01:27:37.251Z,28.23
2023-01-26T01:30:07.814Z,28.29
2023-01-26T01:32:35.749Z,28.21
2023-01-26T01:35:03.384Z,28.19
2023-01-26T01:37:33.572Z,28.24
2023-01-26T01:40:01.233Z,28.32
2023-01-26T01:42:29.009Z,28.21
2023-01-26T01:45:15.035Z,28.26
2023-01-26T01:47:42.754Z,28.20
2023-01-26T01:50:12.552Z,28.24
2023-01-26T01:52:42.027Z,28.15
2023-01-26T01:55:10.213Z,28.26
2023-01-26T01:57:44.803Z,28.16
2023-01-26T02:00:13.451Z,28.28
2023-01-26T02:02:41.359Z,28.13
2023-01-26T02:05:10.208Z,28.27
2023-01-26T02:07:37.874Z,28.23
2023-01-26T02:10:22.395Z,28.11
2023-01-26T02:12:50.170Z,28.21
2023-01-26T02:15:18.005Z,28.17
2023-01-26T02:17:45.694Z,28.28
2023-01-26T02:20:15.909Z,28.25
2023-01-26T02:22:43.995Z,28.22
2023-01-26T02:25:17.618Z,28.21
2023-01-26T02:27:46.649Z,28.25
2023-01-26T02:30:14.385Z,28.20
2023-01-26T02:32:42.069Z,28.24
2023-01-26T02:35:10.391Z,28.17
2023-01-26T02:37:38.120Z,28.13
2023-01-26T02:40:06.786Z,28.12
2023-01-26T02:42:39.211Z,28.07
2023-01-26T02:45:08.944Z,28.12
2023-01-26T02:47:36.584Z,28.07
2023-01-26T02:50:03.315Z,28.12
2023-01-26T02:52:31.727Z,28.23
2023-01-26T02:55:16.890Z,28.14
2023-01-26T02:57:44.783Z,28.09
2023-01-26T03:00:14.862Z,28.04
2023-01-26T03:02:42.653Z,28.01
2023-01-26T03:05:10.378Z,28.11
2023-01-26T03:07:38.234Z,28.02
2023-01-26T03:10:06.324Z,28.15
2023-01-26T03:12:33.977Z,28.08
2023-01-26T03:15:18.961Z,27.93
2023-01-26T03:17:48.000Z,27.99
2023-01-26T03:20:32.839Z,27.96
2023-01-26T03:23:17.771Z,28.24
2023-01-26T03:26:03.008Z,28.07
2023-01-26T03:28:30.737Z,28.09
2023-01-26T03:30:58.499Z,28.20
2023-01-26T03:33:27.644Z,28.15
2023-01-26T03:35:55.523Z,28.16
2023-01-26T03:38:23.177Z,28.16
2023-01-26T03:41:07.916Z,28.18
2023-01-26T03:43:52.795Z,28.19
2023-01-26T03:46:37.714Z,27.84
2023-01-26T03:49:24.424Z,27.94
2023-01-26T03:52:09.535Z,27.86
2023-01-26T03:54:54.414Z,27.87
2023-01-26T03:57:22.104Z,27.88
2023-01-26T03:59:49.802Z,27.84
2023-01-26T04:02:35.080Z,27.77
2023-01-26T04:05:21.623Z,28.17
2023-01-26T04:08:06.677Z,28.09
2023-01-26T04:10:34.415Z,28.10
2023-01-26T04:13:19.538Z,27.77
2023-01-26T04:16:06.394Z,27.90
2023-01-26T04:18:51.379Z,27.91
2023-01-26T04:21:30.344Z,27.87
2023-01-26T04:23:58.301Z,27.88
2023-01-26T04:26:26.048Z,27.97
2023-01-26T04:28:53.765Z,27.81
2023-01-26T04:31:21.486Z,27.78
2023-01-26T04:33:49.280Z,27.83
2023-01-26T04:36:17.055Z,27.86
2023-01-26T04:38:46.196Z,27.94
2023-01-26T04:41:13.879Z,27.93
2023-01-26T04:43:41.525Z,28.01
2023-01-26T04:46:09.414Z,28.18
2023-01-26T04:48:37.127Z,28.18
2023-01-26T04:51:05.379Z,28.25
2023-01-26T04:53:32.978Z,28.22
2023-01-26T04:56:02.077Z,28.13
2023-01-26T04:58:29.930Z,27.94
2023-01-26T05:00:58.027Z,27.79
2023-01-26T05:03:26.178Z,27.96
2023-01-26T05:05:54.155Z,27.96
2023-01-26T05:08:22.164Z,28.02
2023-01-26T05:10:49.834Z,27.80
2023-01-26T05:13:18.881Z,27.81
2023-01-26T05:15:46.538Z,27.91
2023-01-26T05:18:14.152Z,27.86
2023-01-26T05:20:41.852Z,27.74
2023-01-26T05:23:09.578Z,27.99
2023-01-26T05:25:37.432Z,27.70
2023-01-26T05:28:05.351Z,27.88
2023-01-26T05:30:34.533Z,27.89
2023-01-26T05:33:02.602Z,27.74
2023-01-26T05:35:30.354Z,27.80
2023-01-26T05:37:58.088Z,27.98
2023-01-26T05:40:26.208Z,27.94
2023-01-26T05:42:53.909Z,28.00
2023-01-26T05:45:21.643Z,27.85
2023-01-26T05:47:52.607Z,27.89
2023-01-26T05:50:20.319Z,27.80
2023-01-26T05:52:48.187Z,27.96
2023-01-26T05:55:15.864Z,27.89
2023-01-26T05:57:43.643Z,28.00
2023-01-26T06:00:12.739Z,28.04
2023-01-26T06:02:40.667Z,27.48
2023-01-26T06:05:10.414Z,27.52
2023-01-26T06:07:40.451Z,27.60
2023-01-26T06:10:08.596Z,27.59
2023-01-26T06:12:38.578Z,27.58
2023-01-26T06:15:06.919Z,27.56
2023-01-26T06:17:34.659Z,27.46
2023-01-26T06:20:02.400Z,27.55
2023-01-26T06:22:31.537Z,27.48
2023-01-26T06:24:59.153Z,27.69
2023-01-26T06:27:26.852Z,27.59
2023-01-26T06:29:54.454Z,27.59
2023-01-26T06:32:22.184Z,27.50
2023-01-26T06:34:50.050Z,27.51
2023-01-26T06:37:17.678Z,27.52
2023-01-26T06:39:46.880Z,27.59
2023-01-26T06:42:14.937Z,27.49
2023-01-26T06:44:42.633Z,27.61
2023-01-26T06:47:10.391Z,27.58
2023-01-26T06:49:38.084Z,27.84
2023-01-26T06:52:06.212Z,27.83
2023-01-26T06:54:33.930Z,27.71
2023-01-26T06:57:03.217Z,27.61
2023-01-26T06:59:30.947Z,27.58
2023-01-26T07:01:58.577Z,27.54
2023-01-26T07:04:26.814Z,27.72
2023-01-26T07:06:54.504Z,27.65
2023-01-26T07:09:22.205Z,27.43
2023-01-26T07:11:49.980Z,27.25
2023-01-26T07:14:19.083Z,27.52
2023-01-26T07:16:46.776Z,27.48
2023-01-26T07:19:14.535Z,27.58
2023-01-26T07:21:42.246Z,27.52
2023-01-26T07:24:10.260Z,27.34
2023-01-26T07:26:37.971Z,27.53
2023-01-26T07:29:05.690Z,27.40
2023-01-26T07:31:34.721Z,27.56
2023-01-26T07:34:02.380Z,27.39
2023-01-26T07:36:30.245Z,27.43
2023-01-26T07:38:58.009Z,27.47
2023-01-26T07:41:25.704Z,27.29
2023-01-26T07:43:53.387Z,27.52
2023-01-26T07:46:21.137Z,27.43
2023-01-26T07:48:50.415Z,27.45
2023-01-26T07:51:18.111Z,27.35
2023-01-26T07:53:49.884Z,27.64
2023-01-26T07:56:19.531Z,27.32
2023-01-26T07:58:50.141Z,27.60
2023-01-26T08:01:17.903Z,27.52
2023-01-26T08:03:46.074Z,27.40
2023-01-26T08:06:16.134Z,27.62
2023-01-26T08:08:43.986Z,27.58
2023-01-26T08:11:11.953Z,27.30
2023-01-26T08:13:39.702Z,27.33
2023-01-26T08:16:09.594Z,27.48
2023-01-26T08:18:37.388Z,27.13
2023-01-26T08:21:05.148Z,27.22
2023-01-26T08:23:34.432Z,27.36
2023-01-26T08:26:02.395Z,27.35
2023-01-26T08:28:30.190Z,27.35
2023-01-26T08:30:58.300Z,27.45
2023-01-26T08:33:26.162Z,27.46
2023-01-26T08:35:53.964Z,28.36
2023-01-26T08:38:21.923Z,29.03
2023-01-26T08:40:54.583Z,28.81
2023-01-26T08:43:22.870Z,28.27
2023-01-26T08:45:51.107Z,28.39
2023-01-26T08:48:19.407Z,28.20
2023-01-26T08:50:47.804Z,28.60
2023-01-26T08:53:15.576Z,29.09
2023-01-26T08:55:43.348Z,28.71
2023-01-26T08:58:13.188Z,29.07
2023-01-26T09:00:41.126Z,28.90
2023-01-26T09:03:09.686Z,29.03
2023-01-26T09:05:38.284Z,28.99
2023-01-26T09:08:06.286Z,29.07
2023-01-26T09:10:34.782Z,29.11
2023-01-26T09:13:02.556Z,29.34
2023-01-26T09:15:32.358Z,29.15
2023-01-26T09:18:01.170Z,29.20
2023-01-26T09:20:30.297Z,29.35
2023-01-26T09:22:57.958Z,29.26
2023-01-26T09:25:26.069Z,29.38
2023-01-26T09:27:53.831Z,29.29
2023-01-26T09:30:22.386Z,29.26
2023-01-26T09:32:51.448Z,29.31
2023-01-26T09:35:19.681Z,29.15
2023-01-26T09:37:47.532Z,29.37
2023-01-26T09:40:17.505Z,29.31
2023-01-26T09:42:47.534Z,29.28
2023-01-26T09:45:19.270Z,29.19
2023-01-26T09:47:54.713Z,29.37
2023-01-26T09:50:23.716Z,29.37
2023-01-26T09:52:52.139Z,29.29
2023-01-26T09:55:21.073Z,29.40
2023-01-26T09:57:49.929Z,29.41
2023-01-26T10:00:18.988Z,29.29
2023-01-26T10:02:51.270Z,29.16
2023-01-26T10:05:21.838Z,29.06
2023-01-26T10:07:50.183Z,29.07
2023-01-26T10:10:20.146Z,29.02
2023-01-26T10:12:48.620Z,28.99
2023-01-26T10:15:19.964Z,28.92
2023-01-26T10:17:48.298Z,28.90
2023-01-26T10:20:23.505Z,28.79
2023-01-26T10:22:52.305Z,29.28
2023-01-26T10:25:20.407Z,29.29
2023-01-26T10:27:48.126Z,29.49
2023-01-26T10:30:16.618Z,29.85
2023-01-26T10:32:44.701Z,29.97
2023-01-26T10:35:18.374Z,29.89
2023-01-26T10:37:47.434Z,29.71
2023-01-26T10:40:15.797Z,29.78
2023-01-26T10:42:43.861Z,31.45
2023-01-26T10:45:25.347Z,31.75
2023-01-26T10:48:03.533Z,31.31
2023-01-26T10:50:32.786Z,31.24
2023-01-26T10:53:02.387Z,31.04
2023-01-26T10:55:30.837Z,30.66
2023-01-26T10:57:58.567Z,30.56
2023-01-26T11:00:29.837Z,30.38
2023-01-26T11:03:00.228Z,30.30
2023-01-26T11:05:28.654Z,30.14
2023-01-26T11:08:00.295Z,29.96
2023-01-26T11:10:31.671Z,30.06
2023-01-26T11:13:10.132Z,29.81
2023-01-26T11:15:38.899Z,29.81
2023-01-26T11:18:09.097Z,29.64
2023-01-26T11:20:55.324Z,29.54
2023-01-26T11:23:25.813Z,29.52
2023-01-26T11:26:08.694Z,29.39
2023-01-26T11:28:39.612Z,29.47
2023-01-26T11:31:11.528Z,33.45
2023-01-26T11:33:40.084Z,32.26
2023-01-26T11:36:09.604Z,32.21
2023-01-26T11:38:39.013Z,32.48
2023-01-26T11:41:15.928Z,31.84
2023-01-26T11:44:06.698Z,32.17
2023-01-26T11:46:38.928Z,31.78
2023-01-26T11:49:11.014Z,31.80
2023-01-26T11:51:43.467Z,31.49
2023-01-26T11:54:29.949Z,31.46
2023-01-26T11:57:04.516Z,31.56
2023-01-26T11:59:36.627Z,31.25
2023-01-26T12:02:05.273Z,31.44
2023-01-26T12:04:34.723Z,31.17
2023-01-26T12:07:02.978Z,31.12
2023-01-26T12:09:33.401Z,30.92
2023-01-26T12:12:04.868Z,30.86
2023-01-26T12:14:32.978Z,30.88
2023-01-26T12:17:18.072Z,31.33
2023-01-26T12:19:47.947Z,31.19
2023-01-26T12:22:17.543Z,31.04
2023-01-26T12:25:12.265Z,31.14
2023-01-26T12:27:38.565Z,31.28
2023-01-26T12:30:07.500Z,31.22
2023-01-26T12:32:35.853Z,31.44
2023-01-26T12:35:04.057Z,31.46
2023-01-26T12:37:39.255Z,31.72
2023-01-26T12:40:10.461Z,32.38
2023-01-26T12:42:44.283Z,31.80
2023-01-26T12:45:18.156Z,32.07
2023-01-26T12:47:47.438Z,31.97
2023-01-26T12:50:17.493Z,32.42
2023-01-26T12:52:47.136Z,32.70
2023-01-26T12:55:17.500Z,32.72
2023-01-26T12:57:48.633Z,32.63
2023-01-26T13:00:20.167Z,32.54
2023-01-26T13:02:48.917Z,32.33
2023-01-26T13:05:24.397Z,32.58
2023-01-26T13:07:52.696Z,32.33
2023-01-26T13:10:24.424Z,32.58
2023-01-26T13:12:54.717Z,32.49
2023-01-26T13:15:22.658Z,32.42
2023-01-26T13:17:51.496Z,32.39
2023-01-26T13:20:35.601Z,32.18
2023-01-26T13:23:03.302Z,32.44
2023-01-26T13:25:33.282Z,32.41
2023-01-26T13:28:03.414Z,32.96
2023-01-26T13:30:47.686Z,32.90
2023-01-26T13:33:16.872Z,32.76
2023-01-26T13:35:45.290Z,32.86
2023-01-26T13:38:16.257Z,32.61
2023-01-26T13:40:44.223Z,32.69
2023-01-26T13:43:26.131Z,33.01
2023-01-26T13:46:11.839Z,33.13
2023-01-26T13:48:45.145Z,32.80
2023-01-26T13:51:14.424Z,33.41
2023-01-26T13:53:43.491Z,33.14
2023-01-26T13:56:21.579Z,33.27
2023-01-26T13:58:51.374Z,33.78
2023-01-26T14:01:19.072Z,33.60
2023-01-26T14:03:47.620Z,32.88
2023-01-26T14:06:15.729Z,32.81
2023-01-26T14:08:46.734Z,32.74
2023-01-26T14:11:17.908Z,32.65
2023-01-26T14:13:46.692Z,32.65
2023-01-26T14:16:22.181Z,32.36
2023-01-26T14:18:51.363Z,32.33
2023-01-26T14:21:20.620Z,32.16
2023-01-26T14:23:52.075Z,32.15
2023-01-26T14:26:21.458Z,32.02
2023-01-26T14:28:49.128Z,32.05
2023-01-26T14:31:18.801Z,32.04
2023-01-26T14:33:47.980Z,32.15
2023-01-26T14:36:17.054Z,32.03
2023-01-26T14:38:45.492Z,31.86
2023-01-26T14:41:19.216Z,31.94
2023-01-26T14:43:47.592Z,31.90
2023-01-26T14:46:16.892Z,32.00
2023-01-26T14:48:46.099Z,32.05
2023-01-26T14:51:16.774Z,31.87
2023-01-26T14:53:49.649Z,31.82
2023-01-26T14:56:18.532Z,31.84
2023-01-26T14:58:47.802Z,31.85
2023-01-26T15:01:20.862Z,31.76
2023-01-26T15:03:52.752Z,32.50
2023-01-26T15:06:23.894Z,32.34
2023-01-26T15:08:56.236Z,34.69
2023-01-26T15:11:44.845Z,36.69
2023-01-26T15:14:22.076Z,36.81
2023-01-26T15:16:52.825Z,41.17
2023-01-26T15:19:25.798Z,39.02
2023-01-26T15:21:54.842Z,40.18
2023-01-26T15:24:22.610Z,38.44
2023-01-26T15:26:52.423Z,39.40
2023-01-26T15:29:23.312Z,41.89
2023-01-26T15:31:53.395Z,42.01
2023-01-26T15:34:31.151Z,41.16
2023-01-26T15:37:02.844Z,41.54
2023-01-26T15:39:30.508Z,42.40
2023-01-26T15:42:13.503Z,41.79
2023-01-26T15:44:41.946Z,41.88
2023-01-26T15:47:11.573Z,39.81
2023-01-26T15:49:39.958Z,41.32
2023-01-26T15:52:12.409Z,40.66
2023-01-26T15:54:40.895Z,41.50
2023-01-26T15:57:08.599Z,38.86
2023-01-26T15:59:37.181Z,39.88
2023-01-26T16:02:04.973Z,40.89
2023-01-26T16:04:32.623Z,38.96
2023-01-26T16:07:01.263Z,41.21
2023-01-26T16:09:30.411Z,42.15
2023-01-26T16:11:58.935Z,41.29
2023-01-26T16:14:26.707Z,41.60
2023-01-26T16:16:54.364Z,43.12
2023-01-26T16:19:34.648Z,40.99
2023-01-26T16:22:02.916Z,41.42
2023-01-26T16:24:32.794Z,41.52
2023-01-26T16:27:00.525Z,41.04
2023-01-26T16:29:28.960Z,43.19
2023-01-26T16:31:56.759Z,42.07
2023-01-26T16:34:24.454Z,41.32
2023-01-26T16:36:52.899Z,42.90
2023-01-26T16:39:20.904Z,40.86
2023-01-26T16:41:49.954Z,43.55
2023-01-26T16:44:20.949Z,43.25
2023-01-26T16:46:50.206Z,44.19
2023-01-26T16:49:17.944Z,42.01
2023-01-26T16:51:46.509Z,41.70
2023-01-26T16:54:14.272Z,42.99
2023-01-26T16:56:42.373Z,41.22
2023-01-26T16:59:12.326Z,42.96
2023-01-26T17:01:40.450Z,43.18
2023-01-26T17:04:08.927Z,39.79
2023-01-26T17:06:36.691Z,41.75
2023-01-26T17:09:05.009Z,41.62
2023-01-26T17:11:33.569Z,42.22
2023-01-26T17:14:01.204Z,39.44
2023-01-26T17:16:32.855Z,41.66
2023-01-26T17:19:00.562Z,41.79
2023-01-26T17:21:30.457Z,41.37
2023-01-26T17:23:59.004Z,42.35
2023-01-26T17:26:26.798Z,40.63
2023-01-26T17:28:55.744Z,39.94
2023-01-26T17:31:23.638Z,41.81
2023-01-26T17:33:52.718Z,41.21
2023-01-26T17:36:21.622Z,41.47
2023-01-26T17:38:49.425Z,41.13
2023-01-26T17:41:17.128Z,41.55
2023-01-26T17:43:45.974Z,42.37
2023-01-26T17:46:14.779Z,42.79
2023-01-26T17:48:45.341Z,42.69
2023-01-26T17:51:16.575Z,42.65
2023-01-26T17:53:51.271Z,42.17
2023-01-26T17:56:21.319Z,42.15
2023-01-26T17:58:49.710Z,42.85
2023-01-26T18:01:18.354Z,42.97
2023-01-26T18:03:46.068Z,41.36
2023-01-26T18:06:15.097Z,41.63
2023-01-26T18:08:43.608Z,39.56
2023-01-26T18:11:11.885Z,41.24
2023-01-26T18:13:40.423Z,39.25
2023-01-26T18:16:08.280Z,41.25
2023-01-26T18:18:36.070Z,41.89
2023-01-26T18:21:11.870Z,39.06
2023-01-26T18:23:40.913Z,38.56
2023-01-26T18:26:09.509Z,40.58
2023-01-26T18:28:37.131Z,38.23
2023-01-26T18:31:11.963Z,38.08
2023-01-26T18:33:39.647Z,39.22
2023-01-26T18:36:09.428Z,39.75
2023-01-26T18:38:37.938Z,40.05
2023-01-26T18:41:08.206Z,38.48
2023-01-26T18:43:36.735Z,39.07
2023-01-26T18:46:06.521Z,39.14
2023-01-26T18:48:37.016Z,39.89
2023-01-26T18:51:04.910Z,38.43
2023-01-26T18:53:32.635Z,39.48
2023-01-26T18:56:05.910Z,41.04
2023-01-26T18:58:35.125Z,39.15
2023-01-26T19:01:06.150Z,39.22
2023-01-26T19:03:33.909Z,38.67
2023-01-26T19:06:02.094Z,38.46
2023-01-26T19:08:30.787Z,36.87
2023-01-26T19:10:59.010Z,36.99
2023-01-26T19:13:26.789Z,38.11
2023-01-26T19:15:57.024Z,37.67
2023-01-26T19:18:24.921Z,37.40
2023-01-26T19:20:55.984Z,37.36
2023-01-26T19:23:24.530Z,37.18
2023-01-26T19:25:52.404Z,38.03
2023-01-26T19:28:20.160Z,37.73
2023-01-26T19:30:49.156Z,39.06
2023-01-26T19:33:30.470Z,37.90
2023-01-26T19:35:58.526Z,38.47
2023-01-26T19:38:26.341Z,36.83
2023-01-26T19:40:54.902Z,38.43
2023-01-26T19:43:23.871Z,37.07
2023-01-26T19:45:53.928Z,39.65
2023-01-26T19:48:24.166Z,39.25
2023-01-26T19:50:59.321Z,37.87
2023-01-26T19:53:28.224Z,37.00
2023-01-26T19:55:56.404Z,37.11
2023-01-26T19:58:24.060Z,36.58
2023-01-26T20:00:52.579Z,37.88
2023-01-26T20:03:21.493Z,37.91
2023-01-26T20:05:51.209Z,38.84
2023-01-26T20:08:19.813Z,38.05
2023-01-26T20:10:47.455Z,37.44
2023-01-26T20:13:15.308Z,37.91
2023-01-26T20:15:44.020Z,38.17
2023-01-26T20:18:11.748Z,37.79
2023-01-26T20:20:40.360Z,37.18
2023-01-26T20:23:09.387Z,36.69
2023-01-26T20:25:38.320Z,37.70
2023-01-26T20:28:08.229Z,37.43
2023-01-26T20:30:36.006Z,37.34
2023-01-26T20:33:03.671Z,36.97
2023-01-26T20:35:32.501Z,37.00
2023-01-26T20:38:00.226Z,36.60
2023-01-26T20:40:31.264Z,36.56
2023-01-26T20:42:59.253Z,36.94
2023-01-26T20:45:35.543Z,37.01
2023-01-26T20:48:03.524Z,38.00
2023-01-26T20:50:37.250Z,36.97
2023-01-26T20:53:04.899Z,37.95
2023-01-26T20:55:34.214Z,37.45
2023-01-26T20:58:03.453Z,37.79
2023-01-26T21:00:33.027Z,36.42
2023-01-26T21:03:01.637Z,36.70
2023-01-26T21:05:29.266Z,36.81
2023-01-26T21:07:56.973Z,37.27
2023-01-26T21:10:29.231Z,37.29
2023-01-26T21:12:58.224Z,35.88
2023-01-26T21:15:32.331Z,36.60
2023-01-26T21:18:00.079Z,36.35
2023-01-26T21:20:27.766Z,36.19
2023-01-26T21:22:57.223Z,35.65
2023-01-26T21:25:24.884Z,36.97
2023-01-26T21:27:54.317Z,35.69
2023-01-26T21:30:23.415Z,36.62
2023-01-26T21:32:52.704Z,36.32
2023-01-26T21:35:21.358Z,36.05
2023-01-26T21:37:49.019Z,36.94
2023-01-26T21:40:16.916Z,35.89
2023-01-26T21:42:46.137Z,36.37
2023-01-26T21:45:32.392Z,36.54
2023-01-26T21:48:19.940Z,35.92
2023-01-26T21:51:04.982Z,35.47
2023-01-26T21:53:34.210Z,35.45
2023-01-26T21:56:01.933Z,35.31
2023-01-26T21:58:48.124Z,36.06
2023-01-26T22:01:15.920Z,35.29
2023-01-26T22:03:45.201Z,35.76
2023-01-26T22:06:13.787Z,35.85
2023-01-26T22:08:41.471Z,35.65
2023-01-26T22:11:09.986Z,35.64
2023-01-26T22:13:37.625Z,35.52
2023-01-26T22:16:05.958Z,34.77
2023-01-26T22:18:34.536Z,34.83
2023-01-26T22:21:04.125Z,34.78
2023-01-26T22:23:32.257Z,34.80
2023-01-26T22:26:01.136Z,34.91
2023-01-26T22:28:28.799Z,34.78
2023-01-26T22:31:03.204Z,34.74
2023-01-26T22:33:31.088Z,35.14
2023-01-26T22:36:05.170Z,34.65
2023-01-26T22:38:32.924Z,34.69
2023-01-26T22:41:00.698Z,34.61
2023-01-26T22:43:29.084Z,34.41
2023-01-26T22:45:58.304Z,34.61
2023-01-26T22:48:28.104Z,34.39
2023-01-26T22:50:55.756Z,34.50
2023-01-26T22:53:25.658Z,34.48
2023-01-26T22:55:53.649Z,34.36
2023-01-26T22:58:21.328Z,34.27
2023-01-26T23:00:49.836Z,34.40
2023-01-26T23:03:17.568Z,34.41
2023-01-26T23:05:46.415Z,35.28
2023-01-26T23:08:14.107Z,34.76
2023-01-26T23:10:43.149Z,34.40
2023-01-26T23:13:11.529Z,34.39
2023-01-26T23:15:39.761Z,34.22
2023-01-26T23:18:08.193Z,35.34
2023-01-26T23:20:35.916Z,34.61
2023-01-26T23:23:05.862Z,34.12
2023-01-26T23:25:52.145Z,34.29
2023-01-26T23:28:23.236Z,34.19
2023-01-26T23:30:52.445Z,34.00
2023-01-26T23:33:21.425Z,34.17
2023-01-26T23:35:50.379Z,34.19
2023-01-26T23:38:18.746Z,34.26
2023-01-26T23:40:48.720Z,34.45
2023-01-26T23:43:17.560Z,34.09
2023-01-26T23:45:47.061Z,33.93
2023-01-26T23:48:16.160Z,34.07
2023-01-26T23:50:45.307Z,34.01
2023-01-26T23:53:16.455Z,33.73
2023-01-26T23:55:45.406Z,33.94
2023-01-26T23:58:14.453Z,33.73
